Clevelandia, Brazil
Current Conditions -  °F | °C
As of 3:00 PM on Friday 21 Nov 2014 (Local Time) from SBCH Reporting Station
Light Rain Light Rain  
Wind Chill: 82°   Ceiling: Unl
Heat Index: 85°   Visibility: 6mi
Dew Point: 66°   Wind: 12mph
Humidity: 58%   Direction: 360°N
Pressure: 29.88"   Gusts: 23mph
Location:  26.4°S, 52.47°W
Report Text: SBCH 211700Z 36010G20KT 9000 -RA SCT035 FEW040TCU SCT070 28/19 Q1012
Loading
Personal Weather Stations






























Interactive Weather Map New forecast layout! Learn more

10-Day Weather Forecast

Advertisements
Track Severe Weather on mobile